Time;durP1;ratioP1;P1;durP2;ratioP2;P2;SDS_P1;SDS_P2;PMS_P1;PMS_P2;Temp;Humidity;BMP_temperature;BMP_pressure;BME280_temperature;BME280_humidity;BME280_pressure;Samples;Min_cycle;Max_cycle;Signal;HPM_P1;HPM_P2
2022/07/22 00:01:19;;;;;;;;;;;;;;;22.13;58.70;100848.84;4843416;28;98130;-57
2022/07/22 00:04:12;;;;;;;;;;;;;;;22.10;58.71;100855.00;4841992;28;98190;-62
2022/07/22 00:07:05;;;;;;;;;;;;;;;22.07;58.71;100853.72;4842577;28;98395;-57
2022/07/22 00:09:57;;;;;;;;;;;;;;;22.05;58.56;100859.56;4842145;28;98363;-62
2022/07/22 00:12:50;;;;;;;;;;;;;;;22.03;58.65;100856.31;4843059;28;97997;-57
2022/07/22 00:15:43;;;;;;;;;;;;;;;22.02;58.63;100848.44;4842331;28;97957;-62
2022/07/22 00:18:35;;;;;;;;;;;;;;;21.99;58.70;100860.06;4841610;28;98349;-57
2022/07/22 00:21:28;;;;;;;;;;;;;;;21.97;58.58;100865.91;4841126;28;97960;-57
2022/07/22 00:24:20;;;;;;;;;;;;;;;21.95;58.59;100861.88;4841594;28;97842;-62
2022/07/22 00:27:13;;;;;;;;;;;;;;;21.91;58.60;100867.25;4842982;28;97655;-62
2022/07/22 00:30:05;;;;;;;;;;;;;;;21.89;58.58;100875.00;4840685;28;99263;-57
2022/07/22 00:32:58;;;;;;;;;;;;;;;21.84;58.50;100866.97;4841169;28;98327;-64
2022/07/22 00:35:51;;;;;;;;;;;;;;;21.79;58.49;100865.22;4842178;28;97968;-63
2022/07/22 00:38:43;;;;;;;;;;;;;;;21.76;58.35;100865.88;4842187;28;97869;-64
2022/07/22 00:41:36;;;;;;;;;;;;;;;21.72;58.36;100866.88;4841633;28;98512;-62
2022/07/22 00:44:28;;;;;;;;;;;;;;;21.71;58.21;100868.03;4841378;28;98024;-56
2022/07/22 00:47:21;;;;;;;;;;;;;;;21.69;58.20;100862.06;4841877;28;99097;-57
2022/07/22 00:50:14;;;;;;;;;;;;;;;21.64;58.11;100868.53;4841747;28;97863;-57
2022/07/22 00:53:07;;;;;;;;;;;;;;;21.60;57.99;100862.13;4842262;28;98086;-62
2022/07/22 00:56:00;;;;;;;;;;;;;;;21.56;57.94;100870.19;4841603;28;98081;-57
2022/07/22 00:58:53;;;;;;;;;;;;;;;21.53;57.95;100862.63;4841333;28;98383;-57
2022/07/22 01:01:45;;;;;;;;;;;;;;;21.51;57.91;100864.13;4842131;28;98849;-57
2022/07/22 01:04:38;;;;;;;;;;;;;;;21.49;57.93;100866.38;4841917;28;98451;-56
2022/07/22 01:07:31;;;;;;;;;;;;;;;21.48;57.90;100870.25;4841092;28;98253;-57
2022/07/22 01:10:24;;;;;;;;;;;;;;;21.48;57.94;100871.06;4905167;28;97751;-63
2022/07/22 01:13:17;;;;;;;;;;;;;;;21.47;57.80;100880.44;4841475;28;98113;-62
2022/07/22 01:16:09;;;;;;;;;;;;;;;21.47;57.75;100876.88;4842048;28;99049;-57
2022/07/22 01:19:02;;;;;;;;;;;;;;;21.45;57.63;100877.19;4840903;28;98904;-64
2022/07/22 01:21:55;;;;;;;;;;;;;;;21.44;57.63;100872.84;4841543;28;98169;-64
2022/07/22 01:24:47;;;;;;;;;;;;;;;21.43;57.63;100873.19;4841197;28;97873;-61
2022/07/22 01:27:40;;;;;;;;;;;;;;;21.41;57.74;100869.97;4841317;28;98406;-56
2022/07/22 01:30:32;;;;;;;;;;;;;;;21.39;57.65;100873.06;4830051;28;97950;-57
2022/07/22 01:33:25;;;;;;;;;;;;;;;21.39;57.80;100878.53;4920330;28;98044;-57
2022/07/22 01:36:18;;;;;;;;;;;;;;;21.37;57.80;100872.56;4841030;28;98064;-64
2022/07/22 01:39:11;;;;;;;;;;;;;;;21.35;57.86;100877.59;4839743;28;98566;-56
2022/07/22 01:42:16;;;;;;;;;;;;;;;21.32;57.80;100875.47;4840682;28;98543;-63
2022/07/22 01:45:07;;;;;;;;;;;;;;;21.29;57.70;100881.59;4841441;28;98929;-64
2022/07/22 01:48:00;;;;;;;;;;;;;;;21.28;57.77;100877.25;4842188;28;97677;-56
2022/07/22 01:50:52;;;;;;;;;;;;;;;21.23;57.97;100875.50;4842040;28;98412;-62
2022/07/22 01:53:45;;;;;;;;;;;;;;;21.21;57.99;100876.97;4841620;28;98260;-57
2022/07/22 01:56:38;;;;;;;;;;;;;;;21.18;58.00;100872.13;4841817;28;98393;-62
2022/07/22 01:59:30;;;;;;;;;;;;;;;21.14;57.98;100879.41;4841117;28;98654;-62
2022/07/22 02:02:23;;;;;;;;;;;;;;;21.08;57.84;100871.38;4841433;28;98496;-62
2022/07/22 02:05:16;;;;;;;;;;;;;;;21.02;58.08;100872.69;4840362;28;97936;-57
2022/07/22 02:08:09;;;;;;;;;;;;;;;20.97;57.98;100870.13;4840942;28;98340;-57
2022/07/22 02:11:01;;;;;;;;;;;;;;;20.93;58.11;100871.09;4841794;28;97853;-57
2022/07/22 02:13:54;;;;;;;;;;;;;;;20.88;58.05;100872.09;4839915;28;98115;-57
2022/07/22 02:16:47;;;;;;;;;;;;;;;20.82;58.27;100871.44;4840379;28;98550;-62
2022/07/22 02:19:40;;;;;;;;;;;;;;;20.79;58.25;100877.59;4822209;28;97982;-62
2022/07/22 02:22:32;;;;;;;;;;;;;;;20.74;58.32;100875.00;4838323;28;97930;-56
2022/07/22 02:25:25;;;;;;;;;;;;;;;20.72;58.16;100876.50;4839817;28;98461;-57
2022/07/22 02:28:18;;;;;;;;;;;;;;;20.70;58.33;100870.53;4840689;28;98621;-62
2022/07/22 02:31:10;;;;;;;;;;;;;;;20.67;58.25;100876.63;4812225;28;97952;-64
2022/07/22 02:34:03;;;;;;;;;;;;;;;20.63;58.27;100875.69;4802893;29;97744;-57
2022/07/22 02:36:56;;;;;;;;;;;;;;;20.59;58.38;100879.09;4828537;28;98189;-62
2022/07/22 02:39:49;;;;;;;;;;;;;;;20.58;58.39;100880.19;4900523;28;98068;-62
2022/07/22 02:42:41;;;;;;;;;;;;;;;20.57;58.37;100888.75;4820109;28;98439;-57
2022/07/22 02:45:34;;;;;;;;;;;;;;;20.56;58.50;100881.69;4804853;28;97852;-56
2022/07/22 02:48:27;;;;;;;;;;;;;;;20.53;58.36;100887.78;4806706;28;98230;-57
2022/07/22 02:51:19;;;;;;;;;;;;;;;20.50;58.55;100891.19;4819100;28;98406;-62
2022/07/22 02:54:12;;;;;;;;;;;;;;;20.46;58.32;100904.66;4853628;28;98341;-57
2022/07/22 02:57:05;;;;;;;;;;;;;;;20.41;58.39;100904.03;4903681;28;97755;-57
2022/07/22 02:59:57;;;;;;;;;;;;;;;20.32;58.63;100898.56;4902860;28;98081;-62
2022/07/22 03:02:50;;;;;;;;;;;;;;;20.23;58.54;100898.56;4900251;28;98296;-57
2022/07/22 03:05:43;;;;;;;;;;;;;;;20.17;58.70;100905.31;4847545;28;98229;-57
2022/07/22 03:08:35;;;;;;;;;;;;;;;20.11;58.73;100906.59;4903276;28;98086;-62
2022/07/22 03:11:28;;;;;;;;;;;;;;;20.06;58.91;100910.31;4833404;28;98188;-58
2022/07/22 03:14:21;;;;;;;;;;;;;;;20.03;58.94;100910.13;4802035;28;97851;-62
2022/07/22 03:17:14;;;;;;;;;;;;;;;19.99;58.82;100915.44;4799677;28;97886;-62
2022/07/22 03:20:07;;;;;;;;;;;;;;;20.01;58.88;100917.88;4805842;28;97868;-62
2022/07/22 03:22:59;;;;;;;;;;;;;;;20.00;59.01;100916.25;4805233;28;98709;-57
2022/07/22 03:25:51;;;;;;;;;;;;;;;19.98;58.85;100921.25;4809335;28;98777;-64
2022/07/22 03:28:44;;;;;;;;;;;;;;;19.92;58.82;100917.03;4806628;28;97783;-62
2022/07/22 03:31:37;;;;;;;;;;;;;;;19.89;58.97;100920.44;4843215;28;98104;-62
2022/07/22 03:34:29;;;;;;;;;;;;;;;19.83;59.15;100923.28;4842296;28;98107;-64
2022/07/22 03:37:33;;;;;;;;;;;;;;;19.79;59.06;100927.78;4839134;28;98257;-61
2022/07/22 03:40:26;;;;;;;;;;;;;;;19.76;59.24;100928.41;4844101;28;97758;-56
2022/07/22 03:43:18;;;;;;;;;;;;;;;19.77;59.02;100930.06;4841826;28;97719;-63
2022/07/22 03:46:11;;;;;;;;;;;;;;;19.78;59.35;100931.66;4842199;28;98479;-56
2022/07/22 03:49:03;;;;;;;;;;;;;;;19.80;59.27;100925.84;4842603;28;97767;-56
2022/07/22 03:51:56;;;;;;;;;;;;;;;19.80;59.25;100921.19;4844211;28;97778;-63
2022/07/22 03:54:49;;;;;;;;;;;;;;;19.82;59.20;100916.22;4842529;28;97984;-56
2022/07/22 03:57:41;;;;;;;;;;;;;;;19.82;58.96;100916.22;4841836;28;97851;-56
2022/07/22 04:00:34;;;;;;;;;;;;;;;19.84;58.84;100921.34;4841822;28;98733;-56
2022/07/22 04:03:26;;;;;;;;;;;;;;;19.84;59.02;100921.34;4842651;28;97972;-63
2022/07/22 04:06:19;;;;;;;;;;;;;;;19.86;58.81;100924.59;4840951;28;98104;-63
2022/07/22 04:09:12;;;;;;;;;;;;;;;19.91;58.87;100927.16;4837095;28;98366;-56
2022/07/22 04:12:04;;;;;;;;;;;;;;;19.93;58.80;100935.88;4841728;28;98006;-56
2022/07/22 04:14:57;;;;;;;;;;;;;;;19.98;58.72;100929.44;4842390;28;97909;-63
2022/07/22 04:17:50;;;;;;;;;;;;;;;20.01;58.74;100928.81;4841272;28;97939;-61
2022/07/22 04:20:42;;;;;;;;;;;;;;;20.04;58.63;100931.72;4840442;28;98172;-62
2022/07/22 04:23:35;;;;;;;;;;;;;;;20.07;58.64;100928.31;4840987;28;99190;-56
2022/07/22 04:26:28;;;;;;;;;;;;;;;20.08;58.62;100931.84;4842430;28;97989;-63
2022/07/22 04:29:21;;;;;;;;;;;;;;;20.11;58.43;100939.44;4842796;28;98186;-56
2022/07/22 04:32:13;;;;;;;;;;;;;;;20.16;58.54;100943.94;4840930;28;98590;-56
2022/07/22 04:35:06;;;;;;;;;;;;;;;20.24;58.48;100937.66;4841684;28;98789;-56
2022/07/22 04:37:58;;;;;;;;;;;;;;;20.32;58.50;100942.38;4838957;28;98257;-56
2022/07/22 04:40:51;;;;;;;;;;;;;;;20.38;58.08;100945.75;4823118;28;98084;-56
2022/07/22 04:43:43;;;;;;;;;;;;;;;20.42;58.08;100944.78;4822303;28;98577;-56
2022/07/22 04:46:36;;;;;;;;;;;;;;;20.45;58.02;100946.88;4839162;28;98783;-56
2022/07/22 04:49:29;;;;;;;;;;;;;;;20.49;57.97;100947.06;4841916;28;98186;-63
2022/07/22 04:52:21;;;;;;;;;;;;;;;20.54;57.90;100942.22;4823812;28;97896;-62
2022/07/22 04:55:14;;;;;;;;;;;;;;;20.63;57.65;100939.47;4826690;28;97944;-62
2022/07/22 04:58:06;;;;;;;;;;;;;;;20.76;57.64;100946.72;4843035;28;98405;-56
2022/07/22 05:00:59;;;;;;;;;;;;;;;20.89;57.45;100935.91;4840898;28;97809;-56
2022/07/22 05:03:52;;;;;;;;;;;;;;;20.97;57.37;100940.56;4840944;28;97946;-56
2022/07/22 05:06:44;;;;;;;;;;;;;;;21.05;57.16;100937.00;4841011;28;98492;-56
2022/07/22 05:09:37;;;;;;;;;;;;;;;21.13;57.08;100943.59;4839743;28;98265;-56
2022/07/22 05:12:30;;;;;;;;;;;;;;;21.22;56.95;100936.97;4836969;28;97961;-56
2022/07/22 05:15:23;;;;;;;;;;;;;;;21.37;56.77;100940.31;4839831;28;98185;-62
2022/07/22 05:18:16;;;;;;;;;;;;;;;21.49;56.62;100945.91;4839817;28;99242;-62
2022/07/22 05:21:08;;;;;;;;;;;;;;;21.65;56.46;100944.19;4840517;28;98607;-63
2022/07/22 05:24:01;;;;;;;;;;;;;;;21.81;56.26;100941.69;4840940;28;98326;-56
2022/07/22 05:26:53;;;;;;;;;;;;;;;21.97;55.94;100941.94;4840892;28;98359;-62
2022/07/22 05:29:46;;;;;;;;;;;;;;;22.17;55.81;100951.38;4840262;28;98166;-63
2022/07/22 05:32:39;;;;;;;;;;;;;;;22.37;55.33;100949.78;4841109;28;99309;-56
2022/07/22 05:35:31;;;;;;;;;;;;;;;22.56;55.00;100947.34;4840149;28;98195;-62
2022/07/22 05:38:24;;;;;;;;;;;;;;;22.73;55.12;100947.19;4839557;28;98219;-63
2022/07/22 05:41:16;;;;;;;;;;;;;;;22.95;54.96;100958.94;4839945;28;99239;-61
2022/07/22 05:44:09;;;;;;;;;;;;;;;23.16;54.60;100953.41;4839798;28;98826;-63
2022/07/22 05:47:01;;;;;;;;;;;;;;;23.45;53.81;100953.19;4840944;28;98092;-63
2022/07/22 05:49:54;;;;;;;;;;;;;;;23.71;53.67;100952.91;4839441;28;97830;-63
2022/07/22 05:52:56;;;;;;;;;;;;;;;23.92;53.18;100947.25;4839976;28;98201;-63
2022/07/22 05:55:49;;;;;;;;;;;;;;;24.14;52.92;100947.94;4829926;28;98638;-63
2022/07/22 05:58:41;;;;;;;;;;;;;;;24.39;52.58;100946.72;4905034;28;99561;-63
2022/07/22 06:01:34;;;;;;;;;;;;;;;24.66;52.59;100941.59;4842311;28;98029;-57
2022/07/22 06:04:27;;;;;;;;;;;;;;;25.03;52.23;100947.69;4904229;28;99555;-63
2022/07/22 06:07:19;;;;;;;;;;;;;;;26.30;49.84;100951.19;4829809;28;97981;-62
2022/07/22 06:10:12;;;;;;;;;;;;;;;27.32;48.05;100948.06;4840143;28;97978;-62
2022/07/22 06:13:04;;;;;;;;;;;;;;;27.73;48.11;100953.03;4841085;28;97858;-56
2022/07/22 06:15:57;;;;;;;;;;;;;;;29.57;44.71;100952.88;4839703;28;98339;-56
2022/07/22 06:18:50;;;;;;;;;;;;;;;29.73;45.00;100955.38;4839818;28;98254;-56
2022/07/22 06:21:42;;;;;;;;;;;;;;;29.86;44.67;100953.06;4839002;28;98976;-56
2022/07/22 06:24:35;;;;;;;;;;;;;;;30.77;43.09;100953.91;4838092;28;98076;-56
2022/07/22 06:27:27;;;;;;;;;;;;;;;30.66;43.03;100944.75;4839285;28;98427;-57
2022/07/22 06:30:20;;;;;;;;;;;;;;;30.71;43.36;100947.13;4839717;28;98139;-57
2022/07/22 06:33:13;;;;;;;;;;;;;;;30.93;42.84;100943.25;4839532;28;98511;-56
2022/07/22 06:36:06;;;;;;;;;;;;;;;31.13;42.27;100945.66;4838671;28;98719;-57
2022/07/22 06:38:58;;;;;;;;;;;;;;;31.31;41.48;100946.47;4838797;28;98030;-62
2022/07/22 06:41:51;;;;;;;;;;;;;;;31.11;41.78;100937.69;4840041;28;98538;-62
2022/07/22 06:44:55;;;;;;;;;;;;;;;31.50;41.04;100942.50;4838522;28;113087;-63
2022/07/22 06:47:47;;;;;;;;;;;;;;;31.40;40.99;100932.16;4839241;28;97991;-57
2022/07/22 06:50:40;;;;;;;;;;;;;;;31.77;39.90;100937.28;4839632;28;98305;-57
2022/07/22 06:53:33;;;;;;;;;;;;;;;31.76;39.66;100933.72;4839385;28;98588;-62
2022/07/22 06:56:25;;;;;;;;;;;;;;;31.51;39.79;100928.16;4839720;28;98619;-57
2022/07/22 06:59:18;;;;;;;;;;;;;;;31.51;39.97;100927.38;4839000;28;98006;-62
2022/07/22 07:02:10;;;;;;;;;;;;;;;31.71;39.38;100930.53;4838727;28;98549;-62
2022/07/22 07:05:03;;;;;;;;;;;;;;;32.06;38.54;100918.50;4838935;28;98229;-62
2022/07/22 07:07:56;;;;;;;;;;;;;;;32.35;37.90;100921.22;4839204;28;99012;-57
2022/07/22 07:10:48;;;;;;;;;;;;;;;32.54;37.75;100917.94;4839686;28;98125;-57
2022/07/22 07:13:41;;;;;;;;;;;;;;;32.52;38.11;100925.91;4838649;28;98154;-61
2022/07/22 07:16:33;;;;;;;;;;;;;;;32.60;37.54;100921.09;4821424;28;98431;-62
2022/07/22 07:19:26;;;;;;;;;;;;;;;32.39;37.79;100919.19;4835066;28;98207;-57
2022/07/22 07:22:18;;;;;;;;;;;;;;;31.99;38.04;100916.56;4835524;28;98056;-57
2022/07/22 07:25:12;;;;;;;;;;;;;;;31.77;38.11;100921.34;4838813;28;98295;-57
2022/07/22 07:28:05;;;;;;;;;;;;;;;31.63;38.60;100926.94;4838450;28;98326;-57
2022/07/22 07:30:57;;;;;;;;;;;;;;;31.19;38.84;100919.78;4838205;28;98079;-56
2022/07/22 07:33:50;;;;;;;;;;;;;;;30.84;39.17;100919.75;4906049;28;98368;-56
2022/07/22 07:36:43;;;;;;;;;;;;;;;30.45;39.99;100926.78;4840622;28;98408;-57
2022/07/22 07:39:35;;;;;;;;;;;;;;;30.16;39.70;100919.53;4841017;28;98206;-56
2022/07/22 07:42:28;;;;;;;;;;;;;;;29.92;40.00;100912.63;4841861;28;97880;-57
2022/07/22 07:45:20;;;;;;;;;;;;;;;29.73;40.73;100917.28;4841091;28;98285;-57
2022/07/22 07:48:13;;;;;;;;;;;;;;;29.64;40.90;100918.81;4840867;28;98170;-56
2022/07/22 07:51:06;;;;;;;;;;;;;;;29.62;40.42;100919.19;4841376;28;99027;-56
2022/07/22 07:53:58;;;;;;;;;;;;;;;29.68;39.87;100916.88;4841093;28;97907;-56
2022/07/22 07:56:51;;;;;;;;;;;;;;;29.76;39.93;100919.28;4840139;28;97844;-63
2022/07/22 07:59:44;;;;;;;;;;;;;;;29.94;39.93;100919.38;4841280;28;98772;-63
2022/07/22 08:02:36;;;;;;;;;;;;;;;30.06;40.19;100929.38;4841304;28;98487;-62
2022/07/22 08:05:29;;;;;;;;;;;;;;;30.07;39.88;100922.66;4842495;28;98918;-63
2022/07/22 08:08:22;;;;;;;;;;;;;;;30.22;39.26;100927.13;4905527;28;99634;-62
2022/07/22 08:11:14;;;;;;;;;;;;;;;30.56;39.23;100932.38;4841924;28;98209;-63
2022/07/22 08:14:07;;;;;;;;;;;;;;;30.65;39.20;100932.78;4905038;28;100692;-63
2022/07/22 08:17:00;;;;;;;;;;;;;;;30.63;39.21;100926.84;4822756;28;97997;-64
2022/07/22 08:19:52;;;;;;;;;;;;;;;31.25;38.50;100934.13;4836268;28;97875;-62
2022/07/22 08:22:45;;;;;;;;;;;;;;;31.53;38.58;100930.56;4823332;28;98047;-63
2022/07/22 08:25:37;;;;;;;;;;;;;;;31.75;38.21;100945.22;4833974;28;98727;-57
2022/07/22 08:28:30;;;;;;;;;;;;;;;31.63;38.19;100940.88;4840790;28;97890;-56
2022/07/22 08:31:23;;;;;;;;;;;;;;;31.47;38.28;100934.94;4840586;28;98010;-57
2022/07/22 08:34:15;;;;;;;;;;;;;;;32.00;37.96;100940.44;4840285;28;98384;-57
2022/07/22 08:37:08;;;;;;;;;;;;;;;32.88;36.56;100931.28;4840693;28;98297;-57
2022/07/22 08:40:01;;;;;;;;;;;;;;;34.25;35.33;100931.66;4840555;28;99369;-57
2022/07/22 08:43:05;;;;;;;;;;;;;;;35.54;33.83;100941.75;4841588;28;98028;-57
2022/07/22 08:45:57;;;;;;;;;;;;;;;36.76;32.59;100934.50;4841496;28;98843;-57
2022/07/22 08:48:50;;;;;;;;;;;;;;;37.92;31.13;100934.78;4840838;28;97822;-57
2022/07/22 08:51:43;;;;;;;;;;;;;;;37.86;30.66;100928.13;4841531;28;98811;-57
2022/07/22 08:54:35;;;;;;;;;;;;;;;39.09;29.63;100923.22;4841299;28;97980;-57
2022/07/22 08:57:28;;;;;;;;;;;;;;;38.35;30.55;100918.72;4841770;28;98234;-57
2022/07/22 09:00:22;;;;;;;;;;;;;;;37.09;31.39;100912.84;4838471;28;98602;-57
2022/07/22 09:03:27;;;;;;;;;;;;;;;36.10;31.87;100914.66;4839979;28;98020;-57
2022/07/22 09:06:20;;;;;;;;;;;;;;;35.52;32.13;100902.94;4843661;28;98116;-57
2022/07/22 09:09:37;;;;;;;;;;;;;;;35.20;32.68;100895.09;4903798;28;99631;-57
2022/07/22 09:12:39;;;;;;;;;;;;;;;35.42;32.26;100899.09;4840486;28;98539;-57
2022/07/22 09:15:33;;;;;;;;;;;;;;;34.32;32.74;100898.00;4840979;28;97987;-57
2022/07/22 09:18:26;;;;;;;;;;;;;;;33.53;33.93;100890.50;4840508;28;97896;-57
2022/07/22 09:21:19;;;;;;;;;;;;;;;32.86;34.41;100887.03;4840739;28;97897;-57
2022/07/22 09:24:12;;;;;;;;;;;;;;;32.28;34.92;100899.72;4839499;28;98691;-56
2022/07/22 09:27:06;;;;;;;;;;;;;;;31.60;35.74;100899.09;4839375;28;98273;-57
2022/07/22 09:30:01;;;;;;;;;;;;;;;30.94;36.46;100905.88;4840205;28;98944;-62
2022/07/22 09:33:06;;;;;;;;;;;;;;;30.34;37.35;100906.50;4895423;28;98191;-62
2022/07/22 09:35:59;;;;;;;;;;;;;;;29.79;38.15;100892.69;4838734;28;98412;-62
2022/07/22 09:39:00;;;;;;;;;;;;;;;29.35;38.47;100894.38;4840956;28;98521;-57
2022/07/22 09:42:04;;;;;;;;;;;;;;;28.98;38.96;100899.22;4841510;28;97952;-56
2022/07/22 09:44:56;;;;;;;;;;;;;;;28.61;39.58;100903.59;4841062;28;98427;-64
2022/07/22 09:48:06;;;;;;;;;;;;;;;28.29;40.44;100899.63;4840933;28;98452;-63
2022/07/22 09:50:59;;;;;;;;;;;;;;;28.06;40.51;100917.16;4876212;28;98367;-63
2022/07/22 09:53:52;;;;;;;;;;;;;;;27.89;40.97;100920.47;4903798;28;97983;-63
2022/07/22 09:56:45;;;;;;;;;;;;;;;27.77;41.03;100917.94;4840856;28;98584;-63
2022/07/22 09:59:37;;;;;;;;;;;;;;;27.71;41.13;100916.63;4839664;28;99111;-62
2022/07/22 10:02:30;;;;;;;;;;;;;;;27.69;41.37;100919.75;4841088;28;98113;-63
2022/07/22 10:05:23;;;;;;;;;;;;;;;27.71;41.55;100919.41;4841710;28;97852;-56
2022/07/22 10:08:16;;;;;;;;;;;;;;;27.73;41.71;100917.84;4838976;28;98302;-57
2022/07/22 10:11:09;;;;;;;;;;;;;;;27.92;41.59;100910.63;4840488;28;98440;-57
2022/07/22 10:14:01;;;;;;;;;;;;;;;28.36;41.24;100919.09;4839738;28;98663;-57
2022/07/22 10:16:54;;;;;;;;;;;;;;;28.84;40.94;100920.06;4839741;28;98135;-57
2022/07/22 10:19:47;;;;;;;;;;;;;;;29.56;40.09;100912.38;4839725;28;98318;-63
2022/07/22 10:23:10;;;;;;;;;;;;;;;29.86;40.07;100911.41;4839263;28;98306;-57
2022/07/22 10:26:12;;;;;;;;;;;;;;;29.95;39.77;100911.88;4840801;28;98020;-63
2022/07/22 10:29:16;;;;;;;;;;;;;;;30.43;39.04;100909.72;4840157;28;98327;-57
2022/07/22 10:32:21;;;;;;;;;;;;;;;31.70;37.56;100913.00;4839428;28;98675;-57
2022/07/22 10:35:40;;;;;;;;;;;;;;;35.53;33.29;100921.38;4841265;28;102994;-64
2022/07/22 10:38:33;;;;;;;;;;;;;;;38.39;30.74;100916.56;4839327;28;98113;-57
2022/07/22 10:41:26;;;;;;;;;;;;;;;39.49;29.92;100910.16;4840773;28;97751;-57
2022/07/22 10:44:19;;;;;;;;;;;;;;;38.29;29.98;100901.59;4898175;28;98134;-63
2022/07/22 10:47:20;;;;;;;;;;;;;;;37.00;30.55;100899.44;4841132;28;98552;-64
2022/07/22 10:50:24;;;;;;;;;;;;;;;35.75;31.79;100882.50;4840002;28;97845;-57
2022/07/22 10:53:18;;;;;;;;;;;;;;;34.52;32.93;100886.97;4839387;28;97949;-62
2022/07/22 10:56:23;;;;;;;;;;;;;;;33.52;33.70;100885.31;4899488;28;98527;-57
2022/07/22 10:59:36;;;;;;;;;;;;;;;32.63;34.48;100887.59;4840043;28;98419;-57
2022/07/22 11:02:28;;;;;;;;;;;;;;;31.88;35.66;100887.16;4845129;28;98339;-57
2022/07/22 11:05:21;;;;;;;;;;;;;;;31.40;36.12;100888.41;4839346;28;97691;-63
2022/07/22 11:08:18;;;;;;;;;;;;;;;31.12;36.37;100889.16;4842243;28;98077;-57
2022/07/22 11:11:20;;;;;;;;;;;;;;;31.02;36.33;100882.44;4842099;28;98522;-57
2022/07/22 11:14:12;;;;;;;;;;;;;;;31.00;36.59;100889.56;4842704;28;98090;-62
2022/07/22 11:17:06;;;;;;;;;;;;;;;30.95;36.68;100887.97;4843525;28;97711;-62
2022/07/22 11:19:58;;;;;;;;;;;;;;;31.00;36.85;100881.22;4842734;28;99374;-62
2022/07/22 11:22:51;;;;;;;;;;;;;;;31.23;36.49;100878.03;4842189;28;98315;-57
2022/07/22 11:25:44;;;;;;;;;;;;;;;31.63;35.88;100876.03;4904106;28;98014;-57
2022/07/22 11:28:36;;;;;;;;;;;;;;;34.53;32.58;100878.13;4850190;28;98300;-57
2022/07/22 11:31:38;;;;;;;;;;;;;;;35.47;32.13;100872.59;4913236;28;99274;-57
2022/07/22 11:34:31;;;;;;;;;;;;;;;35.07;32.17;100871.72;4938228;28;98149;-62
2022/07/22 11:37:24;;;;;;;;;;;;;;;34.80;32.01;100861.31;4879332;28;98114;-62
2022/07/22 11:40:18;;;;;;;;;;;;;;;34.73;32.56;100861.44;4886351;28;98022;-62
2022/07/22 11:43:22;;;;;;;;;;;;;;;35.04;31.89;100856.56;4888847;28;99280;-63
2022/07/22 11:46:32;;;;;;;;;;;;;;;34.67;31.61;100858.34;4922907;28;98312;-57
2022/07/22 11:49:25;;;;;;;;;;;;;;;34.37;32.58;100853.56;4925476;28;97942;-62
2022/07/22 11:52:18;;;;;;;;;;;;;;;34.30;32.48;100847.28;4912318;28;97789;-64
2022/07/22 11:55:10;;;;;;;;;;;;;;;34.57;32.39;100853.69;4903501;28;98600;-57
2022/07/22 11:58:15;;;;;;;;;;;;;;;34.44;32.48;100850.66;4897501;28;98763;-56
2022/07/22 12:01:08;;;;;;;;;;;;;;;35.31;31.25;100844.50;4912556;28;98528;-57
2022/07/22 12:04:02;;;;;;;;;;;;;;;35.30;31.37;100846.50;4906682;28;97983;-62
2022/07/22 12:06:56;;;;;;;;;;;;;;;36.29;30.15;100839.34;4882408;28;98497;-62
2022/07/22 12:09:48;;;;;;;;;;;;;;;37.49;29.47;100840.38;4853698;28;98372;-64
2022/07/22 12:13:06;;;;;;;;;;;;;;;37.56;29.01;100842.19;4933490;28;98237;-63
2022/07/22 12:15:59;;;;;;;;;;;;;;;38.34;27.98;100833.50;4902900;28;97857;-63
2022/07/22 12:19:07;;;;;;;;;;;;;;;37.73;28.77;100831.69;4900735;28;98228;-57
2022/07/22 12:22:21;;;;;;;;;;;;;;;36.85;29.79;100820.34;4902838;28;98743;-57
2022/07/22 12:25:25;;;;;;;;;;;;;;;36.41;30.02;100821.03;4885801;28;98166;-64
2022/07/22 12:28:39;;;;;;;;;;;;;;;36.42;29.80;100822.59;4936584;28;98025;-63
2022/07/22 12:31:32;;;;;;;;;;;;;;;38.69;27.23;100820.31;4903669;28;99282;-63
2022/07/22 12:34:24;;;;;;;;;;;;;;;39.84;27.02;100824.75;4938124;28;98413;-57
2022/07/22 12:37:28;;;;;;;;;;;;;;;40.63;25.98;100811.94;4888097;28;97981;-65
2022/07/22 12:40:34;;;;;;;;;;;;;;;41.20;25.37;100818.00;4901004;28;97957;-58
2022/07/22 12:43:30;;;;;;;;;;;;;;;41.57;24.88;100812.31;4936802;28;99074;-57
2022/07/22 12:46:23;;;;;;;;;;;;;;;41.61;24.65;100798.81;4920738;28;99389;-57
2022/07/22 12:49:10;;;;;;;;;;;;;;;41.57;24.56;100795.38;4891368;28;98200;-63
2022/07/22 12:52:35;;;;;;;;;;;;;;;41.16;25.15;100794.78;4916123;28;98144;-64
2022/07/22 12:55:28;;;;;;;;;;;;;;;41.26;24.91;100794.75;4926506;28;98126;-63
2022/07/22 12:58:21;;;;;;;;;;;;;;;40.95;24.83;100788.00;4918352;28;100666;-57
2022/07/22 13:01:23;;;;;;;;;;;;;;;40.99;24.68;100784.25;4909339;28;98198;-64
2022/07/22 13:04:15;;;;;;;;;;;;;;;41.00;24.98;100780.19;4898463;28;97877;-58
2022/07/22 13:07:08;;;;;;;;;;;;;;;41.02;24.87;100781.25;4931555;28;98971;-57
2022/07/22 13:10:00;;;;;;;;;;;;;;;40.59;25.40;100783.06;4883352;28;99712;-63
2022/07/22 13:12:53;;;;;;;;;;;;;;;40.75;25.26;100781.22;4936694;28;98239;-63
2022/07/22 13:15:46;;;;;;;;;;;;;;;39.09;26.35;100780.34;4909376;28;98117;-57
2022/07/22 13:18:38;;;;;;;;;;;;;;;38.04;26.54;100772.91;4913808;28;98421;-57
2022/07/22 13:21:31;;;;;;;;;;;;;;;37.38;27.00;100768.84;4919155;28;98288;-57
2022/07/22 13:24:24;;;;;;;;;;;;;;;38.03;26.28;100765.72;4901270;28;98102;-63
2022/07/22 13:27:17;;;;;;;;;;;;;;;38.37;26.75;100759.44;4916109;28;98082;-57
2022/07/22 13:30:09;;;;;;;;;;;;;;;38.63;26.59;100762.97;4886097;28;98651;-58
2022/07/22 13:33:02;;;;;;;;;;;;;;;37.97;27.25;100761.91;4935119;28;98306;-64
2022/07/22 13:35:55;;;;;;;;;;;;;;;36.97;27.77;100764.72;4920108;28;98091;-62
2022/07/22 13:38:47;;;;;;;;;;;;;;;36.11;28.10;100761.97;4901326;28;98009;-57
2022/07/22 13:41:40;;;;;;;;;;;;;;;35.48;28.87;100750.91;4918223;28;98505;-62
2022/07/22 13:44:33;;;;;;;;;;;;;;;35.06;29.18;100755.34;4934736;28;98134;-57
2022/07/22 13:47:26;;;;;;;;;;;;;;;34.73;29.66;100751.50;4915279;28;98695;-57
2022/07/22 13:50:19;;;;;;;;;;;;;;;34.54;29.79;100748.22;4917983;28;97931;-62
2022/07/22 13:53:12;;;;;;;;;;;;;;;34.92;29.13;100739.56;4933628;28;99126;-57
2022/07/22 13:56:04;;;;;;;;;;;;;;;35.14;29.26;100743.59;4911088;28;98220;-57
2022/07/22 13:58:57;;;;;;;;;;;;;;;35.14;29.37;100746.38;4918083;28;98088;-62
2022/07/22 14:01:49;;;;;;;;;;;;;;;35.12;29.31;100745.22;4924828;28;98105;-57
2022/07/22 14:04:43;;;;;;;;;;;;;;;34.83;29.80;100747.75;4911496;28;100520;-64
2022/07/22 14:07:35;;;;;;;;;;;;;;;34.27;30.04;100742.66;4899404;28;98511;-61
2022/07/22 14:10:28;;;;;;;;;;;;;;;33.87;30.55;100739.59;4883650;28;99311;-57
2022/07/22 14:13:11;;;;;;;;;;;;;;;33.49;31.18;100741.72;4904271;28;97820;-62
2022/07/22 14:16:40;;;;;;;;;;;;;;;33.20;31.25;100738.41;4934079;28;98600;-57
2022/07/22 14:19:08;;;;;;;;;;;;;;;32.85;31.77;100734.75;4924746;28;98444;-62
2022/07/22 14:22:01;;;;;;;;;;;;;;;32.74;31.83;100736.88;4890691;28;98140;-62
2022/07/22 14:24:53;;;;;;;;;;;;;;;32.69;31.80;100737.28;4892116;28;98120;-62
2022/07/22 14:27:46;;;;;;;;;;;;;;;32.48;32.15;100744.66;4931563;28;98744;-57
2022/07/22 14:30:48;;;;;;;;;;;;;;;32.67;31.96;100740.50;4861988;28;98924;-64
2022/07/22 14:33:40;;;;;;;;;;;;;;;32.72;32.02;100734.47;4935384;28;98409;-57
2022/07/22 14:36:33;;;;;;;;;;;;;;;32.74;31.85;100737.66;4897874;28;97870;-57
2022/07/22 14:39:26;;;;;;;;;;;;;;;32.44;32.23;100740.31;4914913;28;98191;-63
2022/07/22 14:42:18;;;;;;;;;;;;;;;32.54;32.36;100742.22;4923635;28;98615;-57
2022/07/22 14:45:11;;;;;;;;;;;;;;;32.55;31.77;100735.44;4911937;28;97931;-58
2022/07/22 14:48:03;;;;;;;;;;;;;;;32.58;32.11;100734.63;4929127;28;98056;-64
2022/07/22 14:50:56;;;;;;;;;;;;;;;32.41;32.05;100729.97;4864816;28;98448;-63
2022/07/22 14:53:48;;;;;;;;;;;;;;;32.46;32.12;100732.31;4878745;28;98508;-64